Time;durP1;ratioP1;P1;durP2;ratioP2;P2;SDS_P1;SDS_P2;PMS_P1;PMS_P2;Temp;Humidity;BMP_temperature;BMP_pressure;BME280_temperature;BME280_humidity;BME280_pressure;Samples;Min_cycle;Max_cycle;Signal;HPM_P1;HPM_P2
2022/12/09 00:01:11;;;;;;;6.47;4.40;;;;;;;-141.59;100.00;61776.25;5045367;28;20217;-79
2022/12/09 00:03:38;;;;;;;5.73;4.00;;;;;;;-141.59;100.00;61776.25;5041831;28;20233;-79
2022/12/09 00:06:07;;;;;;;7.83;4.10;;;;;;;-141.59;100.00;61776.25;5049338;28;20205;-79
2022/12/09 00:08:37;;;;;;;6.40;3.87;;;;;;;-141.59;100.00;61776.25;5063818;28;20253;-80
2022/12/09 00:11:05;;;;;;;6.87;4.03;;;;;;;-141.59;100.00;61776.25;5050891;28;20222;-79
2022/12/09 00:13:33;;;;;;;5.20;3.47;;;;;;;-141.59;100.00;61776.25;5053390;28;20206;-79
2022/12/09 00:16:00;;;;;;;7.30;4.10;;;;;;;-141.59;100.00;61776.25;5045990;28;20232;-79
2022/12/09 00:18:27;;;;;;;7.20;4.13;;;;;;;-141.59;100.00;61776.25;5049904;28;20211;-79
2022/12/09 00:20:54;;;;;;;7.30;3.97;;;;;;;-141.59;100.00;61776.25;5048435;28;20202;-80
2022/12/09 00:23:21;;;;;;;6.50;4.33;;;;;;;-141.59;100.00;61776.25;5046233;28;20242;-79
2022/12/09 00:25:50;;;;;;;11.57;6.40;;;;;;;-141.59;100.00;61776.25;5045456;28;20205;-79
2022/12/09 00:28:17;;;;;;;7.50;4.30;;;;;;;-141.59;100.00;61776.25;5047127;28;20228;-79
2022/12/09 00:30:44;;;;;;;8.80;4.50;;;;;;;-141.59;100.00;61776.25;5062233;28;20209;-80
2022/12/09 00:33:11;;;;;;;7.20;4.20;;;;;;;-141.59;100.00;61776.25;5047561;28;20210;-80
2022/12/09 00:35:39;;;;;;;7.70;4.30;;;;;;;-141.59;100.00;61776.25;5047818;28;20204;-80
2022/12/09 00:38:07;;;;;;;7.80;3.77;;;;;;;-141.59;100.00;61776.25;5046187;28;20205;-80
2022/12/09 00:40:35;;;;;;;6.73;4.10;;;;;;;-141.59;100.00;61776.25;5061299;28;20203;-80
2022/12/09 00:43:04;;;;;;;4.97;3.57;;;;;;;-141.59;100.00;61776.25;5049557;28;20209;-80
2022/12/09 00:45:32;;;;;;;7.00;4.13;;;;;;;-141.59;100.00;61776.25;5048085;28;20224;-80
2022/12/09 00:47:59;;;;;;;6.13;4.03;;;;;;;-141.59;100.00;61776.25;5041171;28;20233;-80
2022/12/09 00:50:27;;;;;;;6.97;3.70;;;;;;;-141.59;100.00;61776.25;5059595;28;20296;-80
2022/12/09 00:52:54;;;;;;;5.63;3.70;;;;;;;-141.59;100.00;61776.25;5043283;28;20275;-80
2022/12/09 00:55:21;;;;;;;6.47;3.73;;;;;;;-141.59;100.00;61776.25;5052993;28;20204;-79
2022/12/09 00:57:48;;;;;;;8.20;4.77;;;;;;;-141.59;100.00;61776.25;5044255;28;20205;-80
2022/12/09 01:00:17;;;;;;;6.53;4.40;;;;;;;-141.59;100.00;61776.25;5054099;28;20201;-79
2022/12/09 01:02:44;;;;;;;7.87;4.23;;;;;;;-141.59;100.00;61776.25;5068508;28;20203;-80
2022/12/09 01:05:11;;;;;;;7.37;4.47;;;;;;;-141.59;100.00;61776.25;5048250;28;20200;-80
2022/12/09 01:07:38;;;;;;;8.30;4.93;;;;;;;-141.59;100.00;61776.25;5073698;28;20265;-79
2022/12/09 01:10:07;;;;;;;6.27;4.00;;;;;;;-141.59;100.00;61776.25;5053009;28;20309;-80
2022/12/09 01:12:35;;;;;;;5.47;4.30;;;;;;;-141.59;100.00;61776.25;5052243;28;20195;-79
2022/12/09 01:15:02;;;;;;;6.17;4.27;;;;;;;-141.59;100.00;61776.25;5044314;28;20206;-79
2022/12/09 01:17:30;;;;;;;7.87;4.97;;;;;;;-141.59;100.00;61776.25;5049424;28;20204;-80
2022/12/09 01:19:57;;;;;;;5.90;4.00;;;;;;;-141.59;100.00;61776.25;5058114;28;20232;-80
2022/12/09 01:22:24;;;;;;;6.20;4.80;;;;;;;-141.59;100.00;61776.25;5045833;28;20221;-79
2022/12/09 01:24:51;;;;;;;7.77;5.57;;;;;;;-141.59;100.00;61776.25;5050858;28;20224;-80
2022/12/09 01:27:18;;;;;;;12.53;4.63;;;;;;;-141.59;100.00;61776.25;5043528;28;20211;-80
2022/12/09 01:29:46;;;;;;;6.80;4.40;;;;;;;-141.59;100.00;61776.25;5044579;28;20229;-79
2022/12/09 01:32:13;;;;;;;8.13;4.10;;;;;;;-141.59;100.00;61776.25;5037015;28;20335;-80
2022/12/09 01:34:41;;;;;;;5.83;4.07;;;;;;;-141.59;100.00;61776.25;5056529;28;20201;-79
2022/12/09 01:37:08;;;;;;;6.47;3.97;;;;;;;-141.59;100.00;61776.25;5049688;28;20283;-79
2022/12/09 01:39:35;;;;;;;5.83;4.00;;;;;;;-141.59;100.00;61776.25;5055229;28;20299;-79
2022/12/09 01:42:03;;;;;;;6.03;3.80;;;;;;;-141.59;100.00;61776.25;5070946;28;20269;-80
2022/12/09 01:44:33;;;;;;;6.83;4.27;;;;;;;-141.59;100.00;61776.25;5051572;28;20200;-80
2022/12/09 01:47:02;;;;;;;6.97;4.20;;;;;;;-141.59;100.00;61776.25;5042081;28;20213;-80
2022/12/09 01:49:34;;;;;;;5.87;4.20;;;;;;;-141.59;100.00;61776.25;5051166;28;20213;-80
2022/12/09 01:52:10;;;;;;;5.00;3.37;;;;;;;-141.59;100.00;61776.25;5045056;28;20208;-80
2022/12/09 01:54:41;;;;;;;5.30;3.90;;;;;;;-141.59;100.00;61776.25;5040290;28;20217;-80
2022/12/09 01:57:08;;;;;;;5.60;3.57;;;;;;;-141.59;100.00;61776.25;5054051;28;20199;-80
2022/12/09 01:59:36;;;;;;;6.30;3.83;;;;;;;-141.59;100.00;61776.25;5039040;28;20199;-80
2022/12/09 02:02:06;;;;;;;6.27;4.27;;;;;;;-141.59;100.00;61776.25;5049811;28;20200;-80
2022/12/09 02:04:39;;;;;;;6.17;3.83;;;;;;;-141.59;100.00;61776.25;5071624;28;20204;-80
2022/12/09 02:07:10;;;;;;;5.60;3.97;;;;;;;-141.59;100.00;61776.25;5063392;28;20223;-80
2022/12/09 02:09:38;;;;;;;5.13;3.63;;;;;;;-141.59;100.00;61776.25;5053188;28;20243;-80
2022/12/09 02:12:12;;;;;;;5.77;4.07;;;;;;;-141.59;100.00;61776.25;5051061;28;20206;-80
2022/12/09 02:14:43;;;;;;;5.00;3.53;;;;;;;-141.59;100.00;61776.25;5042001;28;20209;-80
2022/12/09 02:17:32;;;;;;;6.23;3.70;;;;;;;-141.59;100.00;61776.25;5049170;28;20225;-80
2022/12/09 02:20:06;;;;;;;5.83;3.60;;;;;;;-141.59;100.00;61776.25;5049696;28;20275;-80
2022/12/09 02:22:38;;;;;;;6.77;3.73;;;;;;;-141.59;100.00;61776.25;5050011;28;20304;-80
2022/12/09 02:25:16;;;;;;;7.17;4.40;;;;;;;-141.59;100.00;61776.25;5036606;28;20210;-80
2022/12/09 02:27:48;;;;;;;5.13;3.80;;;;;;;-141.59;100.00;61776.25;5043801;28;20198;-80
2022/12/09 02:30:19;;;;;;;6.60;4.00;;;;;;;-141.59;100.00;61776.25;5049104;28;20359;-80
2022/12/09 02:33:12;;;;;;;8.27;4.17;;;;;;;-141.59;100.00;61776.25;5049275;28;20248;-80
2022/12/09 02:35:45;;;;;;;6.73;3.97;;;;;;;-141.59;100.00;61776.25;5042794;28;20253;-80
2022/12/09 02:38:17;;;;;;;4.90;3.60;;;;;;;-141.59;100.00;61776.25;5045829;28;20306;-80
2022/12/09 02:40:50;;;;;;;4.97;3.37;;;;;;;-141.59;100.00;61776.25;5046347;28;20237;-80
2022/12/09 02:43:21;;;;;;;5.27;3.67;;;;;;;-141.59;100.00;61776.25;5051503;28;20217;-80
2022/12/09 02:45:50;;;;;;;6.60;4.30;;;;;;;-141.59;100.00;61776.25;5051614;28;20210;-80
2022/12/09 02:48:23;;;;;;;5.23;3.90;;;;;;;-141.59;100.00;61776.25;5049962;28;20198;-80
2022/12/09 02:50:53;;;;;;;5.37;3.53;;;;;;;-141.59;100.00;61776.25;5047661;28;20231;-80
2022/12/09 02:53:23;;;;;;;6.57;4.10;;;;;;;-141.59;100.00;61776.25;5051418;28;20197;-80
2022/12/09 02:55:53;;;;;;;5.60;4.00;;;;;;;-141.59;100.00;61776.25;5053658;28;20228;-79
2022/12/09 02:58:20;;;;;;;5.03;4.13;;;;;;;-141.59;100.00;61776.25;5046544;28;20220;-80
2022/12/09 03:00:47;;;;;;;5.30;3.83;;;;;;;-141.59;100.00;61776.25;5049788;28;20292;-80
2022/12/09 03:03:17;;;;;;;5.13;3.90;;;;;;;-141.59;100.00;61776.25;5048649;28;20214;-80
2022/12/09 03:05:56;;;;;;;7.23;4.10;;;;;;;-141.59;100.00;61776.25;5048120;28;20240;-80
2022/12/09 03:08:31;;;;;;;7.27;4.13;;;;;;;-141.59;100.00;61776.25;5052539;28;20206;-80
2022/12/09 03:11:03;;;;;;;5.67;4.20;;;;;;;-141.59;100.00;61776.25;5051879;28;20239;-80
2022/12/09 03:13:44;;;;;;;6.53;4.20;;;;;;;-141.59;100.00;61776.25;5060232;28;20201;-80
2022/12/09 03:16:20;;;;;;;6.47;4.13;;;;;;;-141.59;100.00;61776.25;5043694;28;20228;-80
2022/12/09 03:18:53;;;;;;;6.40;4.03;;;;;;;-141.59;100.00;61776.25;5052755;28;20320;-80
2022/12/09 03:21:28;;;;;;;6.23;3.73;;;;;;;-141.59;100.00;61776.25;5052323;28;20200;-80
2022/12/09 03:23:58;;;;;;;6.67;3.77;;;;;;;-141.59;100.00;61776.25;5046007;28;20201;-80
2022/12/09 03:26:29;;;;;;;6.67;4.10;;;;;;;-141.59;100.00;61776.25;5052877;28;20236;-80
2022/12/09 03:29:00;;;;;;;5.83;4.00;;;;;;;-141.59;100.00;61776.25;5043883;28;20225;-80
2022/12/09 03:31:30;;;;;;;6.73;4.10;;;;;;;-141.59;100.00;61776.25;5041227;28;20258;-80
2022/12/09 03:34:05;;;;;;;10.20;5.40;;;;;;;-141.59;100.00;61776.25;5049736;28;20233;-80
2022/12/09 03:36:38;;;;;;;8.83;4.60;;;;;;;-141.59;100.00;61776.25;5047786;28;20206;-80
2022/12/09 03:39:10;;;;;;;6.63;4.40;;;;;;;-141.59;100.00;61776.25;5040245;28;20277;-80
2022/12/09 03:41:43;;;;;;;6.57;4.53;;;;;;;-141.59;100.00;61776.25;5050069;28;20228;-80
2022/12/09 03:44:17;;;;;;;6.87;4.60;;;;;;;-141.59;100.00;61776.25;5041148;28;20202;-80
2022/12/09 03:46:45;;;;;;;7.47;5.10;;;;;;;-141.59;100.00;61776.25;5038801;28;20205;-80
2022/12/09 03:49:13;;;;;;;8.47;4.70;;;;;;;-141.59;100.00;61776.25;5045739;28;20225;-80
2022/12/09 03:51:47;;;;;;;5.53;4.23;;;;;;;-141.59;100.00;61776.25;5049279;28;20303;-80
2022/12/09 03:54:20;;;;;;;9.20;4.23;;;;;;;-141.59;100.00;61776.25;5051496;28;20212;-80
2022/12/09 03:56:54;;;;;;;9.20;5.10;;;;;;;-141.59;100.00;61776.25;5051981;28;20640;-79
2022/12/09 03:59:22;;;;;;;6.97;4.00;;;;;;;-141.59;100.00;61776.25;5061604;28;20194;-80
2022/12/09 04:01:51;;;;;;;8.33;4.67;;;;;;;-141.59;100.00;61776.25;5042437;28;20198;-80
2022/12/09 04:04:18;;;;;;;7.10;4.60;;;;;;;-141.59;100.00;61776.25;5047927;28;20212;-80
2022/12/09 04:06:47;;;;;;;7.17;4.43;;;;;;;-141.59;100.00;61776.25;5048075;28;20252;-80
2022/12/09 04:09:15;;;;;;;7.30;4.77;;;;;;;-141.59;100.00;61776.25;5051317;28;20209;-80
2022/12/09 04:11:42;;;;;;;8.17;4.83;;;;;;;-141.59;100.00;61776.25;5050394;28;20259;-80
2022/12/09 04:14:09;;;;;;;6.50;4.43;;;;;;;-141.59;100.00;61776.25;5043868;28;20208;-80
2022/12/09 04:16:36;;;;;;;6.10;4.10;;;;;;;-141.59;100.00;61776.25;5065761;28;20204;-80
2022/12/09 04:19:04;;;;;;;7.77;4.80;;;;;;;-141.59;100.00;61776.25;5051079;28;20236;-80
2022/12/09 04:21:32;;;;;;;8.30;4.57;;;;;;;-141.59;100.00;61776.25;5056087;28;20228;-80
2022/12/09 04:24:00;;;;;;;7.20;4.27;;;;;;;-141.59;100.00;61776.25;5044915;28;20201;-80
2022/12/09 04:26:27;;;;;;;7.97;4.90;;;;;;;-141.59;100.00;61776.25;5035452;28;20198;-80
2022/12/09 04:28:54;;;;;;;7.37;5.03;;;;;;;-141.59;100.00;61776.25;5050783;28;20262;-80
2022/12/09 04:31:21;;;;;;;6.07;4.33;;;;;;;-141.59;100.00;61776.25;5047861;28;20225;-80
2022/12/09 04:33:48;;;;;;;6.87;4.57;;;;;;;-141.59;100.00;61776.25;5041789;28;20236;-80
2022/12/09 04:36:18;;;;;;;6.90;4.37;;;;;;;-141.59;100.00;61776.25;5052765;28;20243;-80
2022/12/09 04:38:46;;;;;;;7.97;4.70;;;;;;;-141.59;100.00;61776.25;5041360;28;20197;-80
2022/12/09 04:41:15;;;;;;;7.93;4.00;;;;;;;-141.59;100.00;61776.25;5040020;28;20202;-80
2022/12/09 04:43:43;;;;;;;7.47;4.93;;;;;;;-141.59;100.00;61776.25;5063882;28;20193;-80
2022/12/09 04:46:13;;;;;;;6.20;4.43;;;;;;;-141.59;100.00;61776.25;5050619;28;20315;-79
2022/12/09 04:48:40;;;;;;;7.40;5.00;;;;;;;-141.59;100.00;61776.25;5042957;28;20212;-79
2022/12/09 04:51:08;;;;;;;7.50;5.00;;;;;;;-141.59;100.00;61776.25;5041763;28;20220;-80
2022/12/09 04:53:35;;;;;;;7.47;4.83;;;;;;;-141.59;100.00;61776.25;5042788;28;20199;-80
2022/12/09 04:56:05;;;;;;;8.70;5.37;;;;;;;-141.59;100.00;61776.25;5050930;28;20279;-80
2022/12/09 04:58:35;;;;;;;7.00;4.70;;;;;;;-141.59;100.00;61776.25;5051159;28;20201;-80
2022/12/09 05:01:06;;;;;;;7.87;5.20;;;;;;;-141.59;100.00;61776.25;5059108;28;20205;-80
2022/12/09 05:03:33;;;;;;;8.53;5.30;;;;;;;-141.59;100.00;61776.25;5044555;28;20262;-80
2022/12/09 05:06:02;;;;;;;8.13;5.47;;;;;;;-141.59;100.00;61776.25;5050052;28;20209;-80
2022/12/09 05:08:29;;;;;;;11.53;5.70;;;;;;;-141.59;100.00;61776.25;5052782;28;20206;-80
2022/12/09 05:10:57;;;;;;;8.43;5.80;;;;;;;-141.59;100.00;61776.25;5047845;28;20221;-80
2022/12/09 05:13:25;;;;;;;7.93;5.27;;;;;;;-141.59;100.00;61776.25;5063043;28;20207;-79
2022/12/09 05:15:54;;;;;;;8.60;5.20;;;;;;;-141.59;100.00;61776.25;5045868;28;20207;-79
2022/12/09 05:18:21;;;;;;;8.17;5.43;;;;;;;-141.59;100.00;61776.25;5055498;28;20212;-79
2022/12/09 05:20:48;;;;;;;11.13;5.80;;;;;;;-141.59;100.00;61776.25;5048854;28;20193;-80
2022/12/09 05:23:15;;;;;;;8.47;5.60;;;;;;;-141.59;100.00;61776.25;5037603;28;20194;-79
2022/12/09 05:25:42;;;;;;;8.50;5.00;;;;;;;-141.59;100.00;61776.25;5047553;28;20206;-79
2022/12/09 05:28:10;;;;;;;7.97;5.27;;;;;;;-141.59;100.00;61776.25;5049344;28;20213;-79
2022/12/09 05:30:38;;;;;;;10.87;5.53;;;;;;;-141.59;100.00;61776.25;5050613;28;20284;-78
2022/12/09 05:33:06;;;;;;;6.17;4.60;;;;;;;-141.59;100.00;61776.25;5033857;28;20311;-78
2022/12/09 05:35:34;;;;;;;12.47;5.97;;;;;;;-141.59;100.00;61776.25;5038871;28;20218;-78
2022/12/09 05:38:01;;;;;;;7.73;5.10;;;;;;;-141.59;100.00;61776.25;5047211;28;20211;-79
2022/12/09 05:40:28;;;;;;;9.17;5.77;;;;;;;-141.59;100.00;61776.25;5047624;28;20288;-79
2022/12/09 05:42:55;;;;;;;8.47;5.20;;;;;;;-141.59;100.00;61776.25;5054011;28;20540;-78
2022/12/09 05:45:23;;;;;;;8.73;5.87;;;;;;;-141.59;100.00;61776.25;5049510;28;20202;-79
2022/12/09 05:47:51;;;;;;;8.63;5.50;;;;;;;-141.59;100.00;61776.25;5053614;28;20203;-79
2022/12/09 05:50:19;;;;;;;7.93;5.53;;;;;;;-141.59;100.00;61776.25;5055726;28;20231;-79
2022/12/09 05:52:47;;;;;;;10.13;5.60;;;;;;;-141.59;100.00;61776.25;5049650;28;20200;-79
2022/12/09 05:55:14;;;;;;;12.27;7.90;;;;;;;-141.59;100.00;61776.25;5069133;28;20244;-79
2022/12/09 05:57:41;;;;;;;13.03;7.07;;;;;;;-141.59;100.00;61776.25;5048791;28;20212;-79
2022/12/09 06:00:09;;;;;;;12.10;6.70;;;;;;;-141.59;100.00;61776.25;5043083;28;20209;-79
2022/12/09 06:02:40;;;;;;;10.87;6.33;;;;;;;-141.59;100.00;61776.25;5046229;28;20209;-79
2022/12/09 06:05:08;;;;;;;8.57;6.10;;;;;;;-141.59;100.00;61776.25;5045116;28;20352;-79
2022/12/09 06:07:36;;;;;;;9.30;6.13;;;;;;;-141.59;100.00;61776.25;5052010;28;20208;-79
2022/12/09 06:10:06;;;;;;;9.70;6.50;;;;;;;-141.59;100.00;61776.25;5054608;28;20231;-79
2022/12/09 06:12:34;;;;;;;8.90;6.27;;;;;;;-141.59;100.00;61776.25;5053199;28;20216;-79
2022/12/09 06:15:01;;;;;;;11.43;6.90;;;;;;;-141.59;100.00;61776.25;5044485;28;20208;-79
2022/12/09 06:17:29;;;;;;;11.57;7.07;;;;;;;-141.59;100.00;61776.25;5050512;28;20248;-79
2022/12/09 06:19:56;;;;;;;13.07;8.73;;;;;;;-141.59;100.00;61776.25;5053961;28;20233;-79
2022/12/09 06:22:23;;;;;;;10.30;7.17;;;;;;;-141.59;100.00;61776.25;5044538;28;20205;-78
2022/12/09 06:24:51;;;;;;;11.63;6.97;;;;;;;-141.59;100.00;61776.25;5071394;28;20211;-79
2022/12/09 06:27:19;;;;;;;14.53;8.00;;;;;;;-141.59;100.00;61776.25;5051970;28;20206;-78
2022/12/09 06:29:46;;;;;;;14.00;8.37;;;;;;;-141.59;100.00;61776.25;5055736;28;20200;-79
2022/12/09 06:32:13;;;;;;;12.37;7.50;;;;;;;-141.59;100.00;61776.25;5049435;28;20201;-80
2022/12/09 06:34:40;;;;;;;12.37;7.67;;;;;;;-141.59;100.00;61776.25;5044104;28;20197;-79
2022/12/09 06:37:08;;;;;;;11.70;8.13;;;;;;;-141.59;100.00;61776.25;5051613;28;20215;-79
2022/12/09 06:39:35;;;;;;;14.67;8.57;;;;;;;-141.59;100.00;61776.25;5051478;28;20292;-79
2022/12/09 06:42:04;;;;;;;13.40;8.07;;;;;;;-141.59;100.00;61776.25;5046719;28;20280;-79
2022/12/09 06:44:31;;;;;;;13.73;9.20;;;;;;;-141.59;100.00;61776.25;5049958;28;20432;-79
2022/12/09 06:46:58;;;;;;;15.07;10.37;;;;;;;-141.59;100.00;61776.25;5048133;28;20206;-79
2022/12/09 06:49:26;;;;;;;16.10;10.43;;;;;;;-141.59;100.00;61776.25;5044462;28;20204;-79
2022/12/09 06:51:53;;;;;;;13.17;9.10;;;;;;;-141.59;100.00;61776.25;5042369;28;20259;-79
2022/12/09 06:54:20;;;;;;;13.17;8.73;;;;;;;-141.59;100.00;61776.25;5042126;28;20206;-79
2022/12/09 06:56:48;;;;;;;13.73;9.30;;;;;;;-141.59;100.00;61776.25;5052597;28;20201;-80
2022/12/09 06:59:17;;;;;;;17.53;9.77;;;;;;;-141.59;100.00;61776.25;5053124;28;20204;-80
2022/12/09 07:01:45;;;;;;;13.93;9.23;;;;;;;-141.59;100.00;61776.25;5049708;28;20202;-80
2022/12/09 07:04:14;;;;;;;15.10;9.70;;;;;;;-141.59;100.00;61776.25;5046205;28;20319;-80
2022/12/09 07:06:44;;;;;;;15.17;9.50;;;;;;;-141.59;100.00;61776.25;5052943;28;20208;-80
2022/12/09 07:09:14;;;;;;;16.83;9.17;;;;;;;-141.59;100.00;61776.25;5042200;28;20221;-80
2022/12/09 07:11:44;;;;;;;14.17;9.23;;;;;;;-141.59;100.00;61776.25;5057030;28;20222;-80
2022/12/09 07:14:12;;;;;;;15.10;9.40;;;;;;;-141.59;100.00;61776.25;5046832;28;20209;-80
2022/12/09 07:16:41;;;;;;;17.50;10.10;;;;;;;-141.59;100.00;61776.25;5049255;28;20206;-80
2022/12/09 07:19:17;;;;;;;16.97;10.57;;;;;;;-141.59;100.00;61776.25;5051692;28;20279;-80
2022/12/09 07:21:44;;;;;;;21.83;13.20;;;;;;;-141.59;100.00;61776.25;5053871;28;20198;-80
2022/12/09 07:24:12;;;;;;;19.67;11.83;;;;;;;-141.59;100.00;61776.25;5050278;28;20209;-80
2022/12/09 07:26:39;;;;;;;19.93;11.97;;;;;;;-141.59;100.00;61776.25;5046588;28;20230;-80
2022/12/09 07:29:07;;;;;;;17.47;11.53;;;;;;;-141.59;100.00;61776.25;5051327;28;20212;-80
2022/12/09 07:31:35;;;;;;;17.47;11.07;;;;;;;-141.59;100.00;61776.25;5046684;28;20218;-80
2022/12/09 07:34:07;;;;;;;20.47;11.97;;;;;;;-141.59;100.00;61776.25;5065203;28;20213;-79
2022/12/09 07:36:36;;;;;;;18.03;11.27;;;;;;;-141.59;100.00;61776.25;5042254;28;20217;-80
2022/12/09 07:39:07;;;;;;;27.10;15.30;;;;;;;-141.59;100.00;61776.25;5049279;28;20209;-80
2022/12/09 07:41:34;;;;;;;23.83;14.50;;;;;;;-141.59;100.00;61776.25;5062512;28;20288;-79
2022/12/09 07:44:02;;;;;;;18.27;12.47;;;;;;;-141.59;100.00;61776.25;5047042;28;20208;-79
2022/12/09 07:46:29;;;;;;;22.33;12.80;;;;;;;-141.59;100.00;61776.25;5060643;28;20237;-80
2022/12/09 07:48:57;;;;;;;20.63;13.53;;;;;;;-141.59;100.00;61776.25;5050007;28;20189;-80
2022/12/09 07:51:26;;;;;;;19.80;12.70;;;;;;;-141.59;100.00;61776.25;5043060;28;20278;-80
2022/12/09 07:53:53;;;;;;;18.17;11.83;;;;;;;-141.59;100.00;61776.25;5054644;28;20205;-80
2022/12/09 07:56:20;;;;;;;19.87;11.73;;;;;;;-141.59;100.00;61776.25;5048800;28;20255;-80
2022/12/09 07:58:50;;;;;;;17.73;11.30;;;;;;;-141.59;100.00;61776.25;5048126;28;20271;-80
2022/12/09 08:01:19;;;;;;;18.13;12.40;;;;;;;-141.59;100.00;61776.25;5063151;28;20267;-80
2022/12/09 08:03:47;;;;;;;19.40;12.23;;;;;;;-141.59;100.00;61776.25;5049276;28;20248;-80
2022/12/09 08:06:15;;;;;;;20.43;12.67;;;;;;;-141.59;100.00;61776.25;5050318;28;20208;-80
2022/12/09 08:08:44;;;;;;;22.80;12.53;;;;;;;-141.59;100.00;61776.25;5053055;28;20216;-79
2022/12/09 08:11:14;;;;;;;19.87;12.23;;;;;;;-141.59;100.00;61776.25;5063566;28;20224;-80
2022/12/09 08:13:42;;;;;;;18.23;11.80;;;;;;;-141.59;100.00;61776.25;5048344;28;20208;-80
2022/12/09 08:16:11;;;;;;;17.10;11.20;;;;;;;-141.59;100.00;61776.25;5046386;28;20218;-80
2022/12/09 08:18:39;;;;;;;19.13;12.70;;;;;;;-141.59;100.00;61776.25;5049540;28;20242;-80
2022/12/09 08:21:08;;;;;;;20.30;12.77;;;;;;;-141.59;100.00;61776.25;5048287;28;20201;-80
2022/12/09 08:23:35;;;;;;;20.80;12.90;;;;;;;-141.59;100.00;61776.25;5051400;28;20215;-80
2022/12/09 08:26:07;;;;;;;19.87;12.53;;;;;;;-141.59;100.00;61776.25;5049293;28;20212;-80
2022/12/09 08:28:34;;;;;;;24.03;13.70;;;;;;;-141.59;100.00;61776.25;5046154;28;20297;-80
2022/12/09 08:31:09;;;;;;;21.77;13.53;;;;;;;-141.59;100.00;61776.25;5041343;28;20227;-80
2022/12/09 08:33:37;;;;;;;20.03;12.13;;;;;;;-141.59;100.00;61776.25;5063360;28;20235;-80
2022/12/09 08:36:09;;;;;;;22.00;13.50;;;;;;;-141.59;100.00;61776.25;5047416;28;20289;-80
2022/12/09 08:38:37;;;;;;;21.07;12.30;;;;;;;-141.59;100.00;61776.25;5048853;28;20209;-80
2022/12/09 08:41:12;;;;;;;19.63;12.10;;;;;;;-141.59;100.00;61776.25;5063965;28;20206;-81
2022/12/09 08:43:40;;;;;;;18.27;11.73;;;;;;;-141.59;100.00;61776.25;5047692;28;20232;-80
2022/12/09 08:46:07;;;;;;;19.97;12.43;;;;;;;-141.59;100.00;61776.25;5045160;28;20232;-80
2022/12/09 08:48:36;;;;;;;20.87;12.33;;;;;;;-141.59;100.00;61776.25;5044638;28;20255;-80
2022/12/09 08:51:04;;;;;;;18.03;11.43;;;;;;;-141.59;100.00;61776.25;5035569;28;20323;-80
2022/12/09 08:53:34;;;;;;;23.50;13.60;;;;;;;-141.59;100.00;61776.25;5040621;28;20229;-80
2022/12/09 08:56:10;;;;;;;23.50;13.83;;;;;;;-141.59;100.00;61776.25;5037746;28;20217;-80
2022/12/09 08:58:37;;;;;;;25.07;14.97;;;;;;;-141.59;100.00;61776.25;5044777;28;20212;-80
2022/12/09 09:01:06;;;;;;;24.83;14.03;;;;;;;-141.59;100.00;61776.25;5042587;28;20213;-80
2022/12/09 09:03:34;;;;;;;24.20;14.77;;;;;;;-141.59;100.00;61776.25;5040761;28;20212;-80
2022/12/09 09:06:02;;;;;;;24.07;15.47;;;;;;;-141.59;100.00;61776.25;5044124;28;20209;-80
2022/12/09 09:08:30;;;;;;;30.33;16.50;;;;;;;-141.59;100.00;61776.25;5060692;28;20201;-80
2022/12/09 09:10:58;;;;;;;26.33;16.13;;;;;;;-141.59;100.00;61776.25;5049432;28;20225;-80
2022/12/09 09:13:27;;;;;;;30.20;18.40;;;;;;;-141.59;100.00;61776.25;5049916;28;20277;-80
2022/12/09 09:15:54;;;;;;;31.40;18.37;;;;;;;-141.59;100.00;61776.25;5047976;28;20205;-81
2022/12/09 09:18:21;;;;;;;27.63;17.57;;;;;;;-141.59;100.00;61776.25;5058697;28;20556;-80
2022/12/09 09:20:51;;;;;;;23.63;15.00;;;;;;;-141.59;100.00;61776.25;5043216;28;20200;-79
2022/12/09 09:23:18;;;;;;;26.07;14.93;;;;;;;-141.59;100.00;61776.25;5066928;28;20190;-80
2022/12/09 09:25:45;;;;;;;28.10;15.53;;;;;;;-141.59;100.00;61776.25;5061195;28;20205;-80
2022/12/09 09:28:12;;;;;;;26.10;16.27;;;;;;;-141.59;100.00;61776.25;5046567;28;20209;-80
2022/12/09 09:30:40;;;;;;;27.90;16.80;;;;;;;-141.59;100.00;61776.25;5038347;28;20213;-80
2022/12/09 09:33:08;;;;;;;29.63;18.70;;;;;;;-141.59;100.00;61776.25;5072347;28;20202;-79
2022/12/09 09:35:36;;;;;;;31.97;17.93;;;;;;;-141.59;100.00;61776.25;5048904;28;20474;-80
2022/12/09 09:38:03;;;;;;;30.30;17.93;;;;;;;-141.59;100.00;61776.25;5053139;28;20324;-79
2022/12/09 09:40:32;;;;;;;31.17;17.77;;;;;;;-141.59;100.00;61776.25;5050034;28;20296;-79
2022/12/09 09:43:02;;;;;;;25.37;16.00;;;;;;;-141.59;100.00;61776.25;5065179;28;20198;-81
2022/12/09 09:45:29;;;;;;;22.67;13.93;;;;;;;-141.59;100.00;61776.25;5048494;28;20217;-80
2022/12/09 09:48:01;;;;;;;24.77;14.60;;;;;;;-141.59;100.00;61776.25;5073743;28;20210;-79
2022/12/09 09:50:36;;;;;;;21.13;14.00;;;;;;;-141.59;100.00;61776.25;5052251;28;20201;-79
2022/12/09 09:53:16;;;;;;;21.40;13.43;;;;;;;-141.59;100.00;61776.25;5052379;28;20213;-79
2022/12/09 09:55:49;;;;;;;24.50;14.43;;;;;;;-141.59;100.00;61776.25;5052928;28;20302;-79
2022/12/09 09:58:20;;;;;;;24.37;15.00;;;;;;;-141.59;100.00;61776.25;5054180;28;20208;-79
2022/12/09 10:00:53;;;;;;;23.13;15.13;;;;;;;-141.59;100.00;61776.25;5050762;28;20232;-78
2022/12/09 10:03:33;;;;;;;25.30;14.87;;;;;;;-141.59;100.00;61776.25;5051444;28;20296;-78
2022/12/09 10:06:06;;;;;;;23.03;14.40;;;;;;;-141.59;100.00;61776.25;5046196;28;20209;-78
2022/12/09 10:08:42;;;;;;;23.73;14.53;;;;;;;-141.59;100.00;61776.25;5049234;28;20234;-79
2022/12/09 10:11:16;;;;;;;23.23;14.90;;;;;;;-141.59;100.00;61776.25;5047539;28;20232;-80
2022/12/09 10:13:49;;;;;;;23.57;14.60;;;;;;;-141.59;100.00;61776.25;5047481;28;20200;-79
2022/12/09 10:16:20;;;;;;;24.73;14.47;;;;;;;-141.59;100.00;61776.25;5044737;28;20259;-78
2022/12/09 10:19:16;;;;;;;24.10;13.40;;;;;;;-141.59;100.00;61776.25;5037353;28;20234;-78
2022/12/09 10:21:46;;;;;;;23.93;15.30;;;;;;;-141.59;100.00;61776.25;5052851;28;20205;-78
2022/12/09 10:24:21;;;;;;;25.00;14.90;;;;;;;-141.59;100.00;61776.25;5054967;28;20205;-78
2022/12/09 10:26:59;;;;;;;23.30;13.90;;;;;;;-141.59;100.00;61776.25;5066302;28;20296;-78
2022/12/09 10:29:43;;;;;;;24.33;14.23;;;;;;;-141.59;100.00;61776.25;5067727;28;20193;-78
2022/12/09 10:32:16;;;;;;;23.73;14.07;;;;;;;-141.59;100.00;61776.25;5041047;28;20256;-78
2022/12/09 10:34:46;;;;;;;22.70;13.87;;;;;;;-141.59;100.00;61776.25;5051638;28;21381;-78
2022/12/09 10:37:24;;;;;;;21.93;14.47;;;;;;;-141.59;100.00;61776.25;5051738;28;20205;-78
2022/12/09 10:39:55;;;;;;;22.07;13.90;;;;;;;-141.59;100.00;61776.25;5040591;28;20270;-78
2022/12/09 10:45:10;;;;;;;22.27;15.00;;;;;;;-141.59;100.00;61776.25;5065209;28;20202;-78
2022/12/09 10:47:37;;;;;;;23.13;14.17;;;;;;;-141.59;100.00;61776.25;5051445;28;20229;-78
2022/12/09 10:50:24;;;;;;;23.37;13.83;;;;;;;-141.59;100.00;61776.25;5044486;28;20293;-78
2022/12/09 10:52:52;;;;;;;25.23;14.83;;;;;;;-141.59;100.00;61776.25;5042531;28;20228;-78
2022/12/09 10:55:28;;;;;;;22.77;14.20;;;;;;;-141.59;100.00;61776.25;5052991;28;20292;-78
2022/12/09 10:58:11;;;;;;;25.37;14.73;;;;;;;-141.59;100.00;61776.25;5053285;28;20215;-78
2022/12/09 11:00:38;;;;;;;22.60;14.30;;;;;;;-141.59;100.00;61776.25;5071019;28;20228;-78
2022/12/09 11:03:28;;;;;;;22.10;14.67;;;;;;;-141.59;100.00;61776.25;5073810;28;20197;-78
2022/12/09 11:05:59;;;;;;;24.97;13.93;;;;;;;-141.59;100.00;61776.25;5052808;28;20221;-78
2022/12/09 11:08:26;;;;;;;21.10;13.93;;;;;;;-141.59;100.00;61776.25;5050386;28;20205;-78
2022/12/09 11:10:53;;;;;;;23.13;14.53;;;;;;;-141.59;100.00;61776.25;5067089;28;20221;-78
2022/12/09 11:13:28;;;;;;;22.80;14.47;;;;;;;-141.59;100.00;61776.25;5065133;28;20221;-78
2022/12/09 11:15:59;;;;;;;23.30;14.57;;;;;;;-141.59;100.00;61776.25;5049468;28;20209;-79